Paula-c — 2AHU2 — position and weather

sailwx.info

Track history (hours):
 
Tides and Currents Weather Stations Pressure Air Temp Water Temp Dewpoint Dewpoint Depression Visibility Wind Speed Wind Dir Waves Ship Positions

Paula-c

Last reported at 2018-Jan-19 08:00 UTC. Time now 2018-Jan-19 08:02 UTC.
Position N 51°25' E 002°03'.

Length 90 m; draft 4 m.

Type: Cargo ship. MMSI: 235059765.

Date/timePositionNaut miles runAvg speedWind from/ knotsBaromVisibWave heightAir tempDewpointWater temp
2018-Jan-19 08:00N 51°25' E 002°03'611.0
2018-Jan-19 07:30N 51°22' E 002°10'510.3
2018-Jan-19 07:00N 51°20' E 002°18'511.1
2018-Jan-19 06:30N 51°22' E 002°26'910.5
2018-Jan-19 05:39N 51°22' E 002°40'3 9.0
2018-Jan-19 05:19N 51°22' E 002°45'2 6.5
2018-Jan-19 04:58N 51°22' E 002°49'510.0
2018-Jan-19 04:30N 51°22' E 002°56'5 9.7
2018-Jan-19 04:00N 51°22' E 003°04'5 9.3
2018-Jan-19 03:30N 51°23' E 003°11'5 9.1
2018-Jan-19 03:01N 51°24' E 003°18'5 9.1
2018-Jan-19 02:30N 51°25' E 003°26'5 8.4
2018-Jan-19 01:58N 51°26' E 003°33'4 8.3
2018-Jan-19 01:30N 51°27' E 003°39'3 4.6
2018-Jan-19 00:50N 51°27' E 003°44'0 0.0
2018-Jan-19 00:20N 51°27' E 003°44'0 0.0
2018-Jan-18 23:56N 51°27' E 003°44'0 0.0
2018-Jan-18 23:26N 51°27' E 003°44'0 0.0
2018-Jan-18 22:56N 51°27' E 003°44'0 0.0
2018-Jan-18 22:26N 51°27' E 003°44'0 0.0
2018-Jan-18 21:56N 51°27' E 003°44'0 0.0
2018-Jan-18 20:50N 51°27' E 003°44'0 0.0
2018-Jan-18 20:26N 51°27' E 003°44'0 0.0
2018-Jan-18 19:56N 51°27' E 003°44'0 0.0
2018-Jan-18 19:14N 51°27' E 003°44'0 0.0
2018-Jan-18 18:44N 51°27' E 003°44'0 0.0
2018-Jan-18 18:14N 51°27' E 003°44'0 0.0
2018-Jan-18 17:50N 51°27' E 003°44'0 0.0
2018-Jan-18 17:26N 51°27' E 003°44'0 0.0
2018-Jan-18 16:08N 51°27' E 003°44'0 0.0
2018-Jan-18 15:56N 51°27' E 003°44'0 0.0
2018-Jan-18 15:26N 51°27' E 003°44'0 0.0
2018-Jan-18 14:56N 51°27' E 003°44'0 0.0
2018-Jan-18 14:20N 51°27' E 003°44'0 0.0
2018-Jan-18 13:50N 51°27' E 003°44'0 0.0
2018-Jan-18 13:20N 51°27' E 003°44'0 0.0
2018-Jan-18 12:50N 51°27' E 003°44'0 0.0
2018-Jan-18 12:08N 51°27' E 003°44'0 0.0
2018-Jan-18 11:56N 51°27' E 003°44'0 0.0
2018-Jan-18 11:26N 51°27' E 003°44'0 0.0
2018-Jan-18 10:50N 51°27' E 003°44'0 0.0
2018-Jan-18 10:26N 51°27' E 003°44'0 0.0
2018-Jan-18 09:50N 51°27' E 003°44'0 0.0
2018-Jan-18 09:14N 51°27' E 003°44'0 0.0
2018-Jan-18 08:56N 51°27' E 003°44'0 0.0
2018-Jan-18 08:26N 51°27' E 003°44'0 0.0
2018-Jan-18 07:38N 51°27' E 003°44'0 0.0
2018-Jan-18 07:26N 51°27' E 003°44'0 0.0
2018-Jan-18 06:56N 51°27' E 003°44'0 0.0
2018-Jan-18 06:26N 51°27' E 003°44'0 0.0
2018-Jan-18 05:50N 51°27' E 003°44'0 0.0
2018-Jan-18 05:26N 51°27' E 003°44'0 0.0
2018-Jan-18 04:56N 51°27' E 003°44'0 0.0
2018-Jan-18 04:26N 51°27' E 003°44'0 0.0
2018-Jan-18 03:50N 51°27' E 003°44'0 0.0
2018-Jan-18 03:14N 51°27' E 003°44'0 0.0
2018-Jan-18 01:56N 51°27' E 003°44'0 0.0
2018-Jan-18 01:20N 51°27' E 003°44'0 0.0
2018-Jan-18 00:32N 51°27' E 003°44'0 0.0
2018-Jan-17 23:56N 51°27' E 003°44'  
2018-Jan-10 22:17N 41°04' W 008°47'3 9.7
2018-Jan-10 21:59N 41°07' W 008°46'4 8.9
2018-Jan-10 21:31N 41°10' W 008°43'2 3.3
2018-Jan-10 20:52N 41°12' W 008°41'0 0.0
2018-Jan-10 20:28N 41°12' W 008°41'0 0.0
2018-Jan-10 19:58N 41°12' W 008°41'0 0.0
2018-Jan-10 19:28N 41°12' W 008°41'0 0.0
2018-Jan-10 16:07N 41°12' W 008°41'0 0.0
2018-Jan-10 15:49N 41°12' W 008°41'0 0.0
2018-Jan-10 15:28N 41°12' W 008°41'0 0.0
2018-Jan-10 14:58N 41°12' W 008°41'0 0.0
2018-Jan-10 14:25N 41°12' W 008°41'0 0.0
2018-Jan-10 13:55N 41°12' W 008°41'0 0.0
2018-Jan-10 13:28N 41°12' W 008°41'0 0.0
2018-Jan-10 12:58N 41°12' W 008°41'0 0.0
2018-Jan-10 12:28N 41°12' W 008°41'0 0.0
2018-Jan-10 11:58N 41°12' W 008°41'0 0.0
2018-Jan-10 11:28N 41°12' W 008°41'0 0.0
2018-Jan-10 10:58N 41°12' W 008°41'0 0.0
2018-Jan-10 10:28N 41°12' W 008°41'0 0.0
2018-Jan-10 09:55N 41°12' W 008°41'0 0.0
2018-Jan-10 09:25N 41°12' W 008°41'0 0.0
2018-Jan-10 08:58N 41°12' W 008°41'0 0.0
2018-Jan-10 08:28N 41°12' W 008°41'0 0.0
2018-Jan-10 07:58N 41°12' W 008°41'0 0.0
2018-Jan-10 07:28N 41°12' W 008°41'0 0.0
2018-Jan-10 06:58N 41°12' W 008°41'0 0.0
2018-Jan-10 06:28N 41°12' W 008°41'0 0.0
2018-Jan-10 05:58N 41°12' W 008°41'0 0.0
2018-Jan-10 05:28N 41°12' W 008°41'0 0.0
2018-Jan-10 04:58N 41°12' W 008°41'0 0.0
2018-Jan-10 04:28N 41°12' W 008°41'0 0.0
2018-Jan-10 03:58N 41°12' W 008°41'0 0.0
2018-Jan-10 03:28N 41°12' W 008°41'0 0.0
2018-Jan-10 02:58N 41°12' W 008°41'0 0.0
2018-Jan-10 02:28N 41°12' W 008°41'0 0.0
2018-Jan-10 01:58N 41°12' W 008°41'0 0.0
2018-Jan-10 01:28N 41°12' W 008°41'0 0.0
2018-Jan-10 00:58N 41°12' W 008°41'0 0.0
2018-Jan-10 00:28N 41°12' W 008°41'0 0.0
2018-Jan-09 23:58N 41°12' W 008°41'0 0.0
2018-Jan-09 23:25N 41°12' W 008°41'0 0.0
2018-Jan-09 22:58N 41°12' W 008°41'0 0.0
2018-Jan-09 22:28N 41°12' W 008°41'0 0.0
2018-Jan-09 21:58N 41°12' W 008°41'0 0.0
2018-Jan-09 21:28N 41°12' W 008°41'0 0.0
2018-Jan-09 21:01N 41°12' W 008°41'0 0.0
2018-Jan-09 20:31N 41°12' W 008°41'0 0.0
2018-Jan-09 19:58N 41°12' W 008°41'0 0.0
2018-Jan-09 19:25N 41°12' W 008°41'0 0.0
2018-Jan-09 18:58N 41°12' W 008°41'0 0.0
2018-Jan-09 18:28N 41°12' W 008°41'0 0.0
2018-Jan-09 18:01N 41°12' W 008°41'0 0.0
2018-Jan-09 17:28N 41°12' W 008°41'0 0.0
2018-Jan-09 17:01N 41°12' W 008°41'0 0.0
2018-Jan-09 16:31N 41°12' W 008°41'0 0.0
2018-Jan-09 16:01N 41°12' W 008°41'0 0.0
2018-Jan-09 15:31N 41°12' W 008°41'0 0.0
2018-Jan-09 14:58N 41°12' W 008°41'0 0.0
2018-Jan-09 14:31N 41°12' W 008°41'0 0.0
2018-Jan-09 13:58N 41°12' W 008°41'0 0.0
2018-Jan-09 13:31N 41°12' W 008°41'0 0.0
2018-Jan-09 13:01N 41°12' W 008°41'0 0.0
2018-Jan-09 12:28N 41°12' W 008°41'0 0.0
2018-Jan-09 12:01N 41°12' W 008°41'0 0.0
2018-Jan-09 11:31N 41°12' W 008°41'0 0.0
2018-Jan-09 11:01N 41°12' W 008°41'0 0.0
2018-Jan-09 10:31N 41°12' W 008°41'0 0.0
2018-Jan-09 10:01N 41°12' W 008°41'0 0.0
2018-Jan-09 09:31N 41°12' W 008°41'0 0.0
2018-Jan-09 09:01N 41°12' W 008°41'0 0.0
2018-Jan-09 08:31N 41°12' W 008°41'0 0.0
2018-Jan-09 08:01N 41°12' W 008°41'  
Track history (hours):
 
Tides and Currents Weather Stations Pressure Air Temp Water Temp Dewpoint Dewpoint Depression Visibility Wind Speed Wind Dir Waves Ship Positions

Paula-c

Last reported at 2018-Jan-19 08:00 UTC. Time now 2018-Jan-19 08:02 UTC.
Position N 51°25' E 002°03'.

Length 90 m; draft 4 m.

Type: Cargo ship. MMSI: 235059765.

Date/timePositionNaut miles runAvg speedWind from/ knotsBaromVisibWave heightAir tempDewpointWater temp
2018-Jan-19 08:00N 51°25' E 002°03'611.0
2018-Jan-19 07:30N 51°22' E 002°10'510.3
2018-Jan-19 07:00N 51°20' E 002°18'511.1
2018-Jan-19 06:30N 51°22' E 002°26'910.5
2018-Jan-19 05:39N 51°22' E 002°40'3 9.0
2018-Jan-19 05:19N 51°22' E 002°45'2 6.5
2018-Jan-19 04:58N 51°22' E 002°49'510.0
2018-Jan-19 04:30N 51°22' E 002°56'5 9.7
2018-Jan-19 04:00N 51°22' E 003°04'5 9.3
2018-Jan-19 03:30N 51°23' E 003°11'5 9.1
2018-Jan-19 03:01N 51°24' E 003°18'5 9.1
2018-Jan-19 02:30N 51°25' E 003°26'5 8.4
2018-Jan-19 01:58N 51°26' E 003°33'4 8.3
2018-Jan-19 01:30N 51°27' E 003°39'3 4.6
2018-Jan-19 00:50N 51°27' E 003°44'0 0.0
2018-Jan-19 00:20N 51°27' E 003°44'0 0.0
2018-Jan-18 23:56N 51°27' E 003°44'0 0.0
2018-Jan-18 23:26N 51°27' E 003°44'0 0.0
2018-Jan-18 22:56N 51°27' E 003°44'0 0.0
2018-Jan-18 22:26N 51°27' E 003°44'0 0.0
2018-Jan-18 21:56N 51°27' E 003°44'0 0.0
2018-Jan-18 20:50N 51°27' E 003°44'0 0.0
2018-Jan-18 20:26N 51°27' E 003°44'0 0.0
2018-Jan-18 19:56N 51°27' E 003°44'0 0.0
2018-Jan-18 19:14N 51°27' E 003°44'0 0.0
2018-Jan-18 18:44N 51°27' E 003°44'0 0.0
2018-Jan-18 18:14N 51°27' E 003°44'0 0.0
2018-Jan-18 17:50N 51°27' E 003°44'0 0.0
2018-Jan-18 17:26N 51°27' E 003°44'0 0.0
2018-Jan-18 16:08N 51°27' E 003°44'0 0.0
2018-Jan-18 15:56N 51°27' E 003°44'0 0.0
2018-Jan-18 15:26N 51°27' E 003°44'0 0.0
2018-Jan-18 14:56N 51°27' E 003°44'0 0.0
2018-Jan-18 14:20N 51°27' E 003°44'0 0.0
2018-Jan-18 13:50N 51°27' E 003°44'0 0.0
2018-Jan-18 13:20N 51°27' E 003°44'0 0.0
2018-Jan-18 12:50N 51°27' E 003°44'0 0.0
2018-Jan-18 12:08N 51°27' E 003°44'0 0.0
2018-Jan-18 11:56N 51°27' E 003°44'0 0.0
2018-Jan-18 11:26N 51°27' E 003°44'0 0.0
2018-Jan-18 10:50N 51°27' E 003°44'0 0.0
2018-Jan-18 10:26N 51°27' E 003°44'0 0.0
2018-Jan-18 09:50N 51°27' E 003°44'0 0.0
2018-Jan-18 09:14N 51°27' E 003°44'0 0.0
2018-Jan-18 08:56N 51°27' E 003°44'0 0.0
2018-Jan-18 08:26N 51°27' E 003°44'0 0.0
2018-Jan-18 07:38N 51°27' E 003°44'0 0.0
2018-Jan-18 07:26N 51°27' E 003°44'0 0.0
2018-Jan-18 06:56N 51°27' E 003°44'0 0.0
2018-Jan-18 06:26N 51°27' E 003°44'0 0.0
2018-Jan-18 05:50N 51°27' E 003°44'0 0.0
2018-Jan-18 05:26N 51°27' E 003°44'0 0.0
2018-Jan-18 04:56N 51°27' E 003°44'0 0.0
2018-Jan-18 04:26N 51°27' E 003°44'0 0.0
2018-Jan-18 03:50N 51°27' E 003°44'0 0.0
2018-Jan-18 03:14N 51°27' E 003°44'0 0.0
2018-Jan-18 01:56N 51°27' E 003°44'0 0.0
2018-Jan-18 01:20N 51°27' E 003°44'0 0.0
2018-Jan-18 00:32N 51°27' E 003°44'0 0.0
2018-Jan-17 23:56N 51°27' E 003°44'  
2018-Jan-10 22:17N 41°04' W 008°47'3 9.7
2018-Jan-10 21:59N 41°07' W 008°46'4 8.9
2018-Jan-10 21:31N 41°10' W 008°43'2 3.3
2018-Jan-10 20:52N 41°12' W 008°41'0 0.0
2018-Jan-10 20:28N 41°12' W 008°41'0 0.0
2018-Jan-10 19:58N 41°12' W 008°41'0 0.0
2018-Jan-10 19:28N 41°12' W 008°41'0 0.0
2018-Jan-10 16:07N 41°12' W 008°41'0 0.0
2018-Jan-10 15:49N 41°12' W 008°41'0 0.0
2018-Jan-10 15:28N 41°12' W 008°41'0 0.0
2018-Jan-10 14:58N 41°12' W 008°41'0 0.0
2018-Jan-10 14:25N 41°12' W 008°41'0 0.0
2018-Jan-10 13:55N 41°12' W 008°41'0 0.0
2018-Jan-10 13:28N 41°12' W 008°41'0 0.0
2018-Jan-10 12:58N 41°12' W 008°41'0 0.0
2018-Jan-10 12:28N 41°12' W 008°41'0 0.0
2018-Jan-10 11:58N 41°12' W 008°41'0 0.0
2018-Jan-10 11:28N 41°12' W 008°41'0 0.0
2018-Jan-10 10:58N 41°12' W 008°41'0 0.0
2018-Jan-10 10:28N 41°12' W 008°41'0 0.0
2018-Jan-10 09:55N 41°12' W 008°41'0 0.0
2018-Jan-10 09:25N 41°12' W 008°41'0 0.0
2018-Jan-10 08:58N 41°12' W 008°41'0 0.0
2018-Jan-10 08:28N 41°12' W 008°41'0 0.0
2018-Jan-10 07:58N 41°12' W 008°41'0 0.0
2018-Jan-10 07:28N 41°12' W 008°41'0 0.0
2018-Jan-10 06:58N 41°12' W 008°41'0 0.0
2018-Jan-10 06:28N 41°12' W 008°41'0 0.0
2018-Jan-10 05:58N 41°12' W 008°41'0 0.0
2018-Jan-10 05:28N 41°12' W 008°41'0 0.0
2018-Jan-10 04:58N 41°12' W 008°41'0 0.0
2018-Jan-10 04:28N 41°12' W 008°41'0 0.0
2018-Jan-10 03:58N 41°12' W 008°41'0 0.0
2018-Jan-10 03:28N 41°12' W 008°41'0 0.0
2018-Jan-10 02:58N 41°12' W 008°41'0 0.0
2018-Jan-10 02:28N 41°12' W 008°41'0 0.0
2018-Jan-10 01:58N 41°12' W 008°41'0 0.0
2018-Jan-10 01:28N 41°12' W 008°41'0 0.0
2018-Jan-10 00:58N 41°12' W 008°41'0 0.0
2018-Jan-10 00:28N 41°12' W 008°41'0 0.0
2018-Jan-09 23:58N 41°12' W 008°41'0 0.0
2018-Jan-09 23:25N 41°12' W 008°41'0 0.0
2018-Jan-09 22:58N 41°12' W 008°41'0 0.0
2018-Jan-09 22:28N 41°12' W 008°41'0 0.0
2018-Jan-09 21:58N 41°12' W 008°41'0 0.0
2018-Jan-09 21:28N 41°12' W 008°41'0 0.0
2018-Jan-09 21:01N 41°12' W 008°41'0 0.0
2018-Jan-09 20:31N 41°12' W 008°41'0 0.0
2018-Jan-09 19:58N 41°12' W 008°41'0 0.0
2018-Jan-09 19:25N 41°12' W 008°41'0 0.0
2018-Jan-09 18:58N 41°12' W 008°41'0 0.0
2018-Jan-09 18:28N 41°12' W 008°41'0 0.0
2018-Jan-09 18:01N 41°12' W 008°41'0 0.0
2018-Jan-09 17:28N 41°12' W 008°41'0 0.0
2018-Jan-09 17:01N 41°12' W 008°41'0 0.0
2018-Jan-09 16:31N 41°12' W 008°41'0 0.0
2018-Jan-09 16:01N 41°12' W 008°41'0 0.0
2018-Jan-09 15:31N 41°12' W 008°41'0 0.0
2018-Jan-09 14:58N 41°12' W 008°41'0 0.0
2018-Jan-09 14:31N 41°12' W 008°41'0 0.0
2018-Jan-09 13:58N 41°12' W 008°41'0 0.0
2018-Jan-09 13:31N 41°12' W 008°41'0 0.0
2018-Jan-09 13:01N 41°12' W 008°41'0 0.0
2018-Jan-09 12:28N 41°12' W 008°41'0 0.0
2018-Jan-09 12:01N 41°12' W 008°41'0 0.0
2018-Jan-09 11:31N 41°12' W 008°41'0 0.0
2018-Jan-09 11:01N 41°12' W 008°41'0 0.0
2018-Jan-09 10:31N 41°12' W 008°41'0 0.0
2018-Jan-09 10:01N 41°12' W 008°41'0 0.0
2018-Jan-09 09:31N 41°12' W 008°41'0 0.0
2018-Jan-09 09:01N 41°12' W 008°41'0 0.0
2018-Jan-09 08:31N 41°12' W 008°41'0 0.0
2018-Jan-09 08:01N 41°12' W 008°41'  

Dump ship's entire track history